Newport News Williamsburg International Airport
KPHF : now visible

Airfield :











YOU CAN JOIN US ON...

 
LOGIN :

Register | Disclaimer

   EN    FR    IT 

 









Legend :    VFR   Marginal VFR   IFR   Intensive IFR   Very Intensive IFR
Visi :
Ceiling :
>= 8 km
>= 3000ft
5 to 8 km
1000 to 3000 ft
1500m to 5 km
500 to 1000 ft
800 to 1500m
200 to 500 ft
< 800m
< 200 ft
Symbols :   Thunderstorms  Fog  Heavy snow  Heavy precipitations  Wind > 20 kt






- Airport Elevation : 42 ft
- IATA code : PHF


KPHF - Newport News Williamsburg International

CURRENT METAR :
  • 250754Z AUTO 04003KT 10SM OVC008 17/13 A3015 RMK AO2 SLP210 T01670128

EXPIRED METARs :
  • 250654Z AUTO 01005KT 10SM OVC008 17/13 A3016 RMK AO2 SLP213 T01670128
  • 250554Z AUTO 07008KT 10SM OVC008 17/13 A3017 RMK AO2 SLP214 T01670133 10172 20167 57010
  • 250454Z AUTO 06007KT 10SM OVC008 17/13 A3017 RMK AO2 SLP216 T01670133 401940167

TAF KPHF
Valid from the 25 at 06:00 until the 26 at 06:00 UTC


250530Z 2506/2606 06004KT 5SM BR OVC006
FM251200 04005KT P6SM OVC006
FM251700 06006KT P6SM BKN020
FM260300 06003KT P6SM BKN007
KZDC FIR / North America



MET'MAP, your aeronautical weather chart ! - Copyright ORBIFLY December 2007 - Disclaimer

ORBIFLY MET'MAP TEAM :

Programming & Development : Alexandra Zaïnal
Concept & original design : Baudouin d'Aumeries
Assistance for programming : Marc-Olivier Méhu
Technical & hardware support : Manuel Goepfert

Contact : metmap@orbifly.com




SOURCES & CREDITS :

   NOAA       Earth
Advisory